Time;durP1;ratioP1;P1;durP2;ratioP2;P2;SDS_P1;SDS_P2;PMS_P1;PMS_P2;Temp;Humidity;BMP_temperature;BMP_pressure;BME280_temperature;BME280_humidity;BME280_pressure;Samples;Min_cycle;Max_cycle;Signal;HPM_P1;HPM_P2
2023/12/08 00:03:48;;;;;;;31.00;27.70;;;23.70;52.90;;;;;;222619;1244;23345;-55
2023/12/08 00:08:53;;;;;;;34.40;26.60;;;23.60;52.70;;;;;;222747;1260;24179;-54
2023/12/08 00:13:57;;;;;;;36.00;26.50;;;23.50;52.90;;;;;;222820;1260;22611;-53
2023/12/08 00:19:02;;;;;;;34.10;27.30;;;23.50;53.10;;;;;;222512;1264;22535;-51
2023/12/08 00:24:06;;;;;;;29.40;25.30;;;23.40;53.00;;;;;;223013;1261;22525;-47
2023/12/08 00:29:11;;;;;;;31.10;26.80;;;23.30;53.00;;;;;;222611;1260;22996;-48
2023/12/08 00:34:16;;;;;;;30.10;25.50;;;23.40;53.30;;;;;;222328;1260;22514;-49
2023/12/08 00:39:22;;;;;;;30.10;25.40;;;23.60;52.30;;;;;;222804;1254;24523;-46
2023/12/08 00:44:26;;;;;;;31.90;25.60;;;23.70;52.50;;;;;;222682;1260;22811;-49
2023/12/08 00:49:31;;;;;;;28.90;24.90;;;23.80;52.00;;;;;;222594;1260;22544;-49
2023/12/08 00:54:35;;;;;;;29.10;25.00;;;23.90;51.80;;;;;;222964;1260;22520;-47
2023/12/08 00:59:41;;;;;;;28.10;25.10;;;23.90;51.80;;;;;;222964;1256;22528;-50
2023/12/08 01:04:45;;;;;;;31.70;25.50;;;23.90;51.90;;;;;;222907;1250;24260;-46
2023/12/08 01:09:49;;;;;;;27.10;23.20;;;23.80;51.80;;;;;;222833;1263;25420;-48
2023/12/08 01:14:54;;;;;;;30.00;24.10;;;23.70;51.90;;;;;;222567;1263;22633;-48
2023/12/08 01:19:58;;;;;;;30.30;25.10;;;23.70;52.20;;;;;;222412;1252;24263;-50
2023/12/08 01:25:03;;;;;;;31.20;25.60;;;23.50;52.30;;;;;;222691;1253;22615;-53
2023/12/08 01:30:08;;;;;;;30.70;24.80;;;23.50;52.40;;;;;;222936;1268;24183;-48
2023/12/08 01:35:12;;;;;;;30.30;24.50;;;23.60;51.90;;;;;;222724;1269;22597;-46
2023/12/08 01:40:16;;;;;;;27.10;23.30;;;23.50;51.90;;;;;;222469;1254;22524;-47
2023/12/08 01:45:21;;;;;;;29.30;23.70;;;23.30;52.30;;;;;;222680;1253;22662;-47
2023/12/08 01:50:25;;;;;;;28.20;24.70;;;23.40;52.20;;;;;;222931;1268;24174;-50
2023/12/08 01:55:30;;;;;;;26.90;23.90;;;23.60;51.80;;;;;;222692;1263;23348;-47
2023/12/08 02:00:35;;;;;;;30.00;23.90;;;23.70;51.50;;;;;;222559;1263;22514;-49
2023/12/08 02:05:41;;;;;;;26.00;22.70;;;23.80;51.40;;;;;;222512;1268;22508;-51
2023/12/08 02:10:47;;;;;;;28.60;23.90;;;23.90;51.30;;;;;;222506;1263;23011;-51
2023/12/08 02:16:03;;;;;;;28.40;23.60;;;23.90;51.30;;;;;;222840;1263;22662;-50
2023/12/08 02:21:09;;;;;;;29.90;24.70;;;23.90;51.20;;;;;;222819;1263;24836;-46
2023/12/08 02:26:14;;;;;;;28.80;24.00;;;23.80;51.20;;;;;;222995;1246;24379;-52
2023/12/08 02:31:27;;;;;;;27.40;23.40;;;23.70;51.50;;;;;;222918;1268;24255;-48
2023/12/08 02:36:34;;;;;;;26.20;23.40;;;23.60;51.70;;;;;;222525;1254;22527;-49
2023/12/08 02:41:38;;;;;;;26.50;23.70;;;23.60;52.30;;;;;;222797;1263;23863;-49
2023/12/08 02:46:43;;;;;;;28.20;24.60;;;23.70;51.40;;;;;;222658;1257;22607;-49
2023/12/08 02:51:47;;;;;;;27.30;23.60;;;23.60;51.30;;;;;;222458;1264;22533;-48
2023/12/08 02:56:52;;;;;;;28.90;23.60;;;23.50;51.70;;;;;;222706;1263;22528;-48
2023/12/08 03:01:56;;;;;;;27.70;23.40;;;23.40;51.80;;;;;;222567;1268;24262;-48
2023/12/08 03:07:00;;;;;;;26.90;24.00;;;23.50;51.50;;;;;;222552;1263;22638;-46
2023/12/08 03:12:05;;;;;;;27.10;22.80;;;23.60;51.20;;;;;;222384;1266;23940;-46
2023/12/08 03:17:10;;;;;;;24.40;21.80;;;23.70;51.00;;;;;;222819;1260;24056;-48
2023/12/08 03:22:14;;;;;;;24.10;21.60;;;23.80;51.10;;;;;;222528;1266;22585;-46
2023/12/08 03:27:18;;;;;;;26.40;21.80;;;23.80;50.90;;;;;;222269;1259;22514;-46
2023/12/08 03:32:23;;;;;;;25.60;22.20;;;23.90;51.00;;;;;;222360;1261;22527;-47
2023/12/08 03:37:27;;;;;;;25.80;22.20;;;23.70;51.10;;;;;;222476;1266;25475;-50
2023/12/08 03:42:36;;;;;;;25.30;21.60;;;23.70;51.10;;;;;;222570;1264;22576;-51
2023/12/08 03:47:40;;;;;;;25.90;22.60;;;23.60;51.30;;;;;;222643;1264;25359;-49
2023/12/08 03:52:45;;;;;;;25.50;22.30;;;23.60;51.50;;;;;;222724;1260;25859;-50
2023/12/08 03:57:49;;;;;;;23.30;20.80;;;23.60;51.90;;;;;;222999;1263;22564;-48
2023/12/08 04:02:54;;;;;;;24.10;21.60;;;23.50;51.60;;;;;;223175;1260;22517;-49
2023/12/08 04:07:58;;;;;;;24.90;22.20;;;23.50;51.70;;;;;;222657;1268;24198;-50
2023/12/08 04:13:03;;;;;;;27.00;22.30;;;23.50;51.20;;;;;;222754;1254;25214;-49
2023/12/08 04:18:09;;;;;;;26.60;22.50;;;23.30;51.50;;;;;;222690;1257;22585;-50
2023/12/08 04:23:14;;;;;;;24.80;22.20;;;23.50;51.30;;;;;;222513;1261;23929;-46
2023/12/08 04:28:19;;;;;;;25.30;22.60;;;23.70;50.90;;;;;;222874;1260;23135;-47
2023/12/08 04:33:23;;;;;;;24.50;22.10;;;23.80;50.50;;;;;;222539;1261;22521;-50
2023/12/08 04:38:27;;;;;;;24.00;21.50;;;23.90;50.40;;;;;;222962;1254;22531;-52
2023/12/08 04:43:32;;;;;;;23.50;20.90;;;23.90;50.50;;;;;;222776;1266;22525;-47
2023/12/08 04:48:36;;;;;;;23.90;21.10;;;23.80;50.50;;;;;;222854;1266;22515;-50
2023/12/08 04:53:41;;;;;;;24.30;21.70;;;23.80;50.20;;;;;;222743;1260;22615;-52
2023/12/08 04:58:47;;;;;;;23.40;20.90;;;23.70;50.30;;;;;;222905;1267;24337;-48
2023/12/08 05:03:52;;;;;;;22.90;20.40;;;23.60;50.50;;;;;;222635;1268;22620;-49
2023/12/08 05:08:57;;;;;;;24.60;21.50;;;23.60;51.10;;;;;;222704;1257;22527;-47
2023/12/08 05:14:02;;;;;;;24.10;21.50;;;23.50;50.80;;;;;;222967;1256;22797;-46
2023/12/08 05:19:06;;;;;;;25.30;21.10;;;23.50;50.80;;;;;;222754;1266;26647;-49
2023/12/08 05:24:11;;;;;;;25.10;21.10;;;23.60;50.30;;;;;;222531;1268;26500;-51
2023/12/08 05:29:15;;;;;;;24.70;21.70;;;23.40;50.30;;;;;;222759;1261;22518;-47
2023/12/08 05:34:20;;;;;;;23.20;20.60;;;23.40;50.50;;;;;;222623;1268;24353;-48
2023/12/08 05:39:24;;;;;;;23.80;21.30;;;23.20;50.70;;;;;;222460;1259;22553;-48
2023/12/08 05:44:28;;;;;;;22.70;20.30;;;23.00;51.10;;;;;;222565;1261;24243;-47
2023/12/08 05:49:33;;;;;;;22.20;19.90;;;23.00;51.10;;;;;;222779;1257;22518;-47
2023/12/08 05:54:37;;;;;;;22.50;20.20;;;23.00;51.50;;;;;;222720;1267;22623;-48
2023/12/08 05:59:43;;;;;;;21.90;19.60;;;23.20;50.60;;;;;;222455;1266;25340;-49
2023/12/08 06:04:48;;;;;;;22.70;20.30;;;23.50;50.30;;;;;;222583;1254;25224;-50
2023/12/08 06:09:52;;;;;;;22.70;20.30;;;23.60;50.00;;;;;;223192;1266;24224;-47
2023/12/08 06:14:59;;;;;;;22.00;19.60;;;23.80;49.70;;;;;;222728;1260;22533;-59
2023/12/08 06:20:08;;;;;;;23.60;20.00;;;23.80;49.70;;;;;;222673;1261;26535;-58
2023/12/08 06:25:12;;;;;;;24.00;19.20;;;23.70;50.20;;;;;;222723;1257;241298;-59
2023/12/08 06:30:20;;;;;;;24.30;18.90;;;23.70;51.50;;;;;;222458;1261;22513;-48
2023/12/08 06:35:24;;;;;;;20.70;18.50;;;23.60;53.60;;;;;;223102;1261;25319;-48
2023/12/08 06:40:29;;;;;;;20.50;18.40;;;23.60;52.80;;;;;;222731;1266;25446;-48
2023/12/08 06:45:33;;;;;;;29.70;22.60;;;23.50;52.80;;;;;;223032;1254;22531;-47
2023/12/08 06:50:38;;;;;;;27.00;22.10;;;23.40;53.70;;;;;;222859;1263;24184;-48
2023/12/08 06:55:42;;;;;;;25.80;21.90;;;23.40;52.90;;;;;;222958;1263;24227;-48
2023/12/08 07:00:48;;;;;;;26.10;21.70;;;23.40;52.80;;;;;;222581;1262;22498;-49
2023/12/08 07:05:52;;;;;;;28.30;21.10;;;23.30;53.00;;;;;;222829;1266;22630;-49
2023/12/08 07:10:57;;;;;;;27.80;22.80;;;23.10;53.00;;;;;;222683;1263;25337;-49
2023/12/08 07:16:05;;;;;;;23.90;19.70;;;22.90;53.20;;;;;;222136;1268;22991;-50
2023/12/08 07:21:09;;;;;;;22.20;19.80;;;22.90;53.20;;;;;;223349;1254;22541;-49
2023/12/08 07:26:15;;;;;;;24.00;20.70;;;23.00;53.10;;;;;;222874;1266;25478;-46
2023/12/08 07:31:19;;;;;;;26.10;20.10;;;23.30;52.20;;;;;;222796;1267;24203;-46
2023/12/08 07:36:24;;;;;;;23.20;19.70;;;23.40;51.60;;;;;;222242;1267;22513;-48
2023/12/08 07:41:28;;;;;;;24.90;20.50;;;23.70;51.30;;;;;;222597;1266;22507;-48
2023/12/08 07:46:32;;;;;;;35.10;20.60;;;23.70;50.60;;;;;;222578;1254;22517;-46
2023/12/08 07:51:37;;;;;;;38.20;18.70;;;23.90;51.50;;;;;;222592;1267;22623;-47
2023/12/08 07:56:41;;;;;;;31.30;21.20;;;23.60;51.00;;;;;;222712;1263;22523;-47
2023/12/08 08:01:45;;;;;;;27.10;19.80;;;23.50;51.60;;;;;;222535;1266;22501;-47
2023/12/08 08:06:50;;;;;;;26.20;20.10;;;23.30;51.60;;;;;;222276;1266;24209;-48
2023/12/08 08:11:54;;;;;;;24.50;20.30;;;23.20;52.00;;;;;;222433;1260;22518;-47
2023/12/08 08:16:59;;;;;;;28.20;20.40;;;23.10;52.60;;;;;;222577;1260;25471;-45
2023/12/08 08:22:03;;;;;;;24.40;20.40;;;23.10;52.10;;;;;;222872;1260;25577;-48
2023/12/08 08:27:28;;;;;;;25.50;20.80;;;23.20;51.70;;;;;;222661;1264;22640;-45
2023/12/08 08:32:34;;;;;;;25.60;22.10;;;23.20;51.90;;;;;;222798;1263;22514;-49
2023/12/08 08:37:38;;;;;;;27.30;22.20;;;23.00;51.20;;;;;;222616;1260;23010;-46
2023/12/08 08:42:42;;;;;;;24.20;20.50;;;22.90;51.80;;;;;;222678;1263;22511;-46
2023/12/08 08:47:48;;;;;;;28.90;21.20;;;23.00;51.40;;;;;;222632;1260;24470;-48
2023/12/08 08:52:53;;;;;;;26.70;21.50;;;23.30;50.70;;;;;;222246;1262;23002;-45
2023/12/08 08:57:57;;;;;;;27.20;21.90;;;23.60;50.20;;;;;;222426;1268;26096;-48
2023/12/08 09:03:03;;;;;;;32.80;22.40;;;23.60;49.50;;;;;;224833;1268;22560;-48
2023/12/08 09:08:08;;;;;;;26.20;21.90;;;23.80;49.60;;;;;;222669;1263;25186;-45
2023/12/08 09:13:15;;;;;;;26.10;21.80;;;23.70;49.00;;;;;;222473;1260;25455;-46
2023/12/08 09:18:20;;;;;;;38.00;27.30;;;23.60;49.20;;;;;;222572;1264;22515;-45
2023/12/08 09:23:25;;;;;;;28.80;24.50;;;23.40;47.80;;;;;;222630;1267;22632;-47
2023/12/08 09:28:29;;;;;;;32.30;24.30;;;23.30;48.70;;;;;;222571;1254;23928;-48
2023/12/08 09:33:34;;;;;;;31.20;25.30;;;23.40;48.70;;;;;;222411;1260;22659;-48
2023/12/08 09:38:38;;;;;;;31.40;24.30;;;23.50;48.60;;;;;;222319;1268;24222;-49
2023/12/08 09:43:53;;;;;;;29.70;23.30;;;23.70;48.00;;;;;;222015;1261;24261;-49
2023/12/08 09:49:00;;;;;;;31.10;24.30;;;23.60;48.50;;;;;;222673;1260;25370;-49
2023/12/08 09:54:05;;;;;;;33.40;24.00;;;23.60;49.00;;;;;;222940;1260;25300;-47
2023/12/08 09:59:11;;;;;;;31.90;23.40;;;23.50;49.00;;;;;;222822;1268;24330;-48
2023/12/08 10:04:16;;;;;;;32.90;25.10;;;23.30;49.20;;;;;;222585;1267;22524;-47
2023/12/08 10:09:22;;;;;;;30.20;23.40;;;23.20;49.70;;;;;;222708;1267;25323;-49
2023/12/08 10:14:26;;;;;;;37.10;24.60;;;23.10;49.50;;;;;;222689;1266;25207;-50
2023/12/08 10:19:30;;;;;;;33.40;25.20;;;23.00;49.60;;;;;;222708;1266;22950;-48
2023/12/08 10:24:35;;;;;;;31.70;25.00;;;23.00;49.60;;;;;;222873;1263;22521;-49
2023/12/08 10:29:39;;;;;;;35.20;24.70;;;22.90;49.60;;;;;;222557;1264;22657;-46
2023/12/08 10:34:44;;;;;;;33.30;25.60;;;23.00;49.50;;;;;;222756;1268;24193;-50
2023/12/08 10:39:51;;;;;;;29.50;24.20;;;23.30;48.80;;;;;;222580;1268;22515;-47
2023/12/08 10:44:58;;;;;;;29.90;23.90;;;23.50;48.30;;;;;;222568;1265;25405;-46
2023/12/08 10:50:04;;;;;;;30.90;24.70;;;23.70;47.90;;;;;;222722;1268;22521;-46
2023/12/08 10:55:10;;;;;;;35.00;25.90;;;23.80;47.70;;;;;;222422;1263;24860;-48
2023/12/08 11:00:17;;;;;;;35.70;25.40;;;23.80;47.40;;;;;;222480;1261;22566;-47
2023/12/08 11:05:28;;;;;;;37.10;27.80;;;23.70;47.70;;;;;;222562;1266;22520;-53
2023/12/08 11:10:37;;;;;;;40.00;26.20;;;23.50;47.40;;;;;;222700;1253;23916;-54
2023/12/08 11:16:05;;;;;;;35.20;25.20;;;23.50;47.20;;;;;;222971;1263;24286;-49
2023/12/08 11:21:11;;;;;;;35.60;24.50;;;23.40;47.50;;;;;;222623;1260;24333;-46
2023/12/08 11:26:40;;;;;;;39.10;25.50;;;23.50;47.70;;;;;;222802;1260;25278;-45
2023/12/08 11:32:17;;;;;;;32.90;25.30;;;23.40;48.50;;;;;;222510;1260;22526;-48
2023/12/08 11:37:22;;;;;;;32.30;24.50;;;23.30;48.40;;;;;;222383;1260;22518;-48
2023/12/08 11:42:27;;;;;;;35.80;26.00;;;23.20;48.70;;;;;;222670;1264;22639;-47
2023/12/08 11:47:35;;;;;;;36.00;27.40;;;23.00;49.90;;;;;;223196;1254;25239;-47
2023/12/08 11:52:42;;;;;;;35.60;27.10;;;22.80;49.60;;;;;;222651;1263;22604;-48
2023/12/08 11:58:11;;;;;;;34.60;26.50;;;22.90;50.30;;;;;;222545;1261;24292;-47
2023/12/08 12:03:16;;;;;;;33.60;25.10;;;23.10;50.00;;;;;;223032;1261;25287;-46
2023/12/08 12:08:26;;;;;;;35.90;26.90;;;23.30;50.80;;;;;;222441;1267;25325;-46
2023/12/08 12:13:32;;;;;;;31.90;25.60;;;23.30;50.20;;;;;;223031;1254;24199;-47
2023/12/08 12:18:36;;;;;;;32.90;25.70;;;23.40;50.60;;;;;;223043;1264;25157;-46
2023/12/08 12:23:41;;;;;;;33.70;27.10;;;23.40;50.90;;;;;;222636;1253;24330;-49
2023/12/08 12:28:45;;;;;;;34.70;27.70;;;23.50;51.40;;;;;;222785;1261;22512;-49
2023/12/08 12:33:49;;;;;;;35.30;26.50;;;23.40;50.60;;;;;;222722;1268;24268;-46
2023/12/08 12:38:54;;;;;;;31.40;25.60;;;23.40;50.60;;;;;;222650;1264;24212;-46
2023/12/08 12:43:58;;;;;;;30.90;25.70;;;23.30;51.00;;;;;;222903;1257;24260;-49
2023/12/08 12:49:02;;;;;;;34.50;25.60;;;23.30;51.00;;;;;;223088;1266;23880;-48
2023/12/08 12:54:08;;;;;;;34.10;26.20;;;23.30;51.10;;;;;;222702;1264;22521;-47
2023/12/08 12:59:12;;;;;;;32.40;24.70;;;23.20;51.30;;;;;;222940;1264;23970;-46
2023/12/08 13:04:16;;;;;;;31.40;25.40;;;23.10;51.40;;;;;;222595;1257;22633;-46
2023/12/08 13:09:31;;;;;;;34.40;25.10;;;23.00;51.90;;;;;;222597;1254;22518;-48
2023/12/08 13:14:36;;;;;;;30.70;25.10;;;22.80;53.00;;;;;;222698;1267;22540;-45
2023/12/08 13:19:40;;;;;;;35.40;27.00;;;23.10;52.50;;;;;;222792;1257;22534;-47
2023/12/08 13:24:47;;;;;;;31.10;25.50;;;23.20;51.20;;;;;;222489;1256;22568;-47
2023/12/08 13:29:52;;;;;;;29.80;24.30;;;23.30;52.20;;;;;;222560;1268;22584;-48
2023/12/08 13:34:56;;;;;;;31.20;24.80;;;23.30;52.60;;;;;;222999;1264;23924;-47
2023/12/08 13:40:01;;;;;;;29.40;24.50;;;23.40;52.40;;;;;;222693;1264;22527;-49
2023/12/08 13:45:07;;;;;;;28.50;23.50;;;23.50;52.00;;;;;;222868;1254;24200;-48
2023/12/08 13:50:11;;;;;;;29.80;24.00;;;23.50;52.50;;;;;;222747;1264;23898;-48
2023/12/08 13:55:15;;;;;;;30.20;22.90;;;23.60;51.80;;;;;;222538;1247;24199;-49
2023/12/08 14:00:20;;;;;;;27.30;22.50;;;23.40;52.30;;;;;;222357;1247;22515;-47
2023/12/08 14:05:24;;;;;;;30.50;25.30;;;23.30;52.60;;;;;;222701;1254;22510;-48
2023/12/08 14:10:29;;;;;;;28.60;23.70;;;23.10;52.60;;;;;;222749;1260;25389;-49
2023/12/08 14:15:33;;;;;;;30.50;24.90;;;23.10;52.40;;;;;;222651;1260;22615;-48
2023/12/08 14:20:38;;;;;;;30.80;25.40;;;23.00;53.00;;;;;;222645;1261;22520;-45
2023/12/08 14:25:42;;;;;;;28.80;24.70;;;22.90;52.80;;;;;;222573;1268;24189;-48
2023/12/08 14:30:46;;;;;;;28.30;24.20;;;23.00;53.40;;;;;;222829;1268;24234;-49
2023/12/08 14:35:50;;;;;;;27.40;23.50;;;23.10;53.30;;;;;;223004;1254;24002;-49
2023/12/08 14:40:54;;;;;;;31.10;24.70;;;23.30;53.00;;;;;;222452;1260;22517;-47
2023/12/08 14:46:03;;;;;;;28.20;23.50;;;23.40;53.30;;;;;;222385;1268;24260;-48
2023/12/08 14:51:07;;;;;;;32.50;24.60;;;23.40;52.70;;;;;;222996;1268;22753;-49
2023/12/08 14:56:11;;;;;;;29.30;23.40;;;23.50;52.30;;;;;;222805;1256;22518;-47
2023/12/08 15:01:17;;;;;;;28.50;23.20;;;23.50;52.10;;;;;;222217;1260;26525;-46
2023/12/08 15:06:22;;;;;;;27.50;22.40;;;23.40;51.90;;;;;;222697;1261;22524;-45
2023/12/08 15:11:26;;;;;;;28.90;23.60;;;23.30;52.20;;;;;;222305;1256;23922;-47
2023/12/08 15:16:30;;;;;;;28.30;24.70;;;23.20;52.10;;;;;;226385;1264;22552;-48
2023/12/08 15:21:35;;;;;;;31.50;24.70;;;23.20;52.00;;;;;;224322;1264;25327;-49
2023/12/08 15:26:41;;;;;;;29.20;23.80;;;23.20;52.00;;;;;;222959;1254;22755;-49
2023/12/08 15:31:45;;;;;;;32.00;26.50;;;23.00;52.30;;;;;;222972;1263;25328;-48
2023/12/08 15:36:49;;;;;;;29.60;24.70;;;22.80;52.50;;;;;;223027;1254;22554;-47
2023/12/08 15:41:53;;;;;;;29.40;24.10;;;23.10;52.20;;;;;;222617;1257;22657;-45
2023/12/08 15:46:58;;;;;;;28.10;23.40;;;23.20;51.80;;;;;;222767;1264;25337;-45
2023/12/08 15:52:02;;;;;;;29.30;23.90;;;23.40;51.20;;;;;;222713;1260;24967;-48
2023/12/08 15:57:09;;;;;;;29.40;24.70;;;23.50;51.10;;;;;;222782;1254;22511;-48
2023/12/08 16:02:13;;;;;;;32.20;25.70;;;23.60;50.90;;;;;;222870;1264;23850;-47
2023/12/08 16:07:17;;;;;;;31.70;25.70;;;23.50;50.60;;;;;;222329;1264;24189;-50
2023/12/08 16:12:21;;;;;;;37.60;25.90;;;23.40;50.60;;;;;;222541;1254;22510;-47
2023/12/08 16:17:27;;;;;;;39.40;27.00;;;23.30;50.70;;;;;;222485;1250;23888;-48
2023/12/08 16:22:32;;;;;;;33.80;25.40;;;23.40;49.80;;;;;;222654;1263;25613;-48
2023/12/08 16:27:36;;;;;;;42.10;28.10;;;23.40;51.70;;;;;;222736;1260;25271;-50
2023/12/08 16:32:40;;;;;;;35.50;27.20;;;23.40;52.40;;;;;;222573;1254;22548;-50
2023/12/08 16:37:46;;;;;;;37.90;27.10;;;23.30;54.00;;;;;;222769;1253;25281;-49
2023/12/08 16:42:50;;;;;;;33.30;27.00;;;23.30;56.10;;;;;;222736;1254;25782;-50
2023/12/08 16:47:59;;;;;;;39.60;27.70;;;23.30;55.80;;;;;;222735;1260;22517;-47
2023/12/08 16:53:04;;;;;;;33.60;27.40;;;23.60;55.60;;;;;;222406;1260;22730;-50
2023/12/08 16:58:09;;;;;;;38.60;26.30;;;23.80;54.40;;;;;;222538;1263;22545;-47
2023/12/08 17:03:13;;;;;;;37.80;27.30;;;23.90;54.10;;;;;;222789;1260;24340;-47
2023/12/08 17:08:17;;;;;;;34.20;26.80;;;24.00;53.30;;;;;;222712;1254;26949;-46
2023/12/08 17:13:21;;;;;;;30.50;24.60;;;23.90;53.40;;;;;;222740;1264;22638;-45
2023/12/08 17:18:26;;;;;;;36.40;26.50;;;23.80;53.30;;;;;;222759;1260;25510;-48
2023/12/08 17:23:30;;;;;;;34.40;25.50;;;23.70;53.30;;;;;;222837;1257;24199;-48
2023/12/08 17:28:34;;;;;;;30.60;24.70;;;23.70;53.50;;;;;;222739;1265;22526;-47
2023/12/08 17:33:39;;;;;;;37.10;26.40;;;23.60;54.00;;;;;;222671;1253;22777;-48
2023/12/08 17:38:43;;;;;;;37.90;27.40;;;23.60;53.50;;;;;;222966;1256;22639;-48
2023/12/08 17:43:47;;;;;;;35.40;27.00;;;23.40;54.00;;;;;;222410;1260;23613;-47
2023/12/08 17:48:51;;;;;;;35.10;26.00;;;23.40;54.30;;;;;;222530;1268;25328;-44
2023/12/08 17:53:55;;;;;;;41.90;27.00;;;23.40;54.30;;;;;;222533;1260;22511;-47
2023/12/08 17:59:00;;;;;;;31.00;25.20;;;23.40;54.10;;;;;;222863;1260;22632;-49
2023/12/08 18:04:04;;;;;;;35.50;25.40;;;23.40;53.50;;;;;;222350;1254;25328;-46
2023/12/08 18:09:08;;;;;;;33.80;25.40;;;23.30;53.10;;;;;;222713;1264;24467;-48
2023/12/08 18:14:12;;;;;;;33.30;26.00;;;23.20;53.30;;;;;;222490;1260;24190;-46
2023/12/08 18:19:17;;;;;;;29.20;24.50;;;23.10;53.20;;;;;;222956;1259;24213;-44
2023/12/08 18:24:25;;;;;;;33.00;25.10;;;23.00;53.10;;;;;;222316;1261;238597;-44
2023/12/08 18:29:32;;;;;;;29.90;23.40;;;23.20;53.20;;;;;;222562;1260;24805;-46
2023/12/08 18:34:36;;;;;;;38.90;24.90;;;23.60;52.50;;;;;;222749;1259;22510;-46
2023/12/08 18:39:41;;;;;;;31.20;24.30;;;23.80;51.70;;;;;;222968;1268;22685;-48
2023/12/08 18:44:46;;;;;;;35.50;25.00;;;24.00;51.30;;;;;;222973;1253;23386;-49
2023/12/08 18:49:53;;;;;;;31.20;23.60;;;24.00;51.60;;;;;;222813;1253;25267;-46
2023/12/08 18:54:57;;;;;;;41.60;23.90;;;24.00;51.30;;;;;;222479;1256;22518;-45
2023/12/08 19:00:03;;;;;;;42.60;23.30;;;23.80;51.80;;;;;;222485;1261;22547;-46
2023/12/08 19:05:09;;;;;;;37.40;22.80;;;23.80;52.90;;;;;;222328;1253;25287;-46
2023/12/08 19:10:13;;;;;;;37.70;23.20;;;23.90;52.50;;;;;;223217;1260;24212;-50
2023/12/08 19:15:18;;;;;;;31.80;22.60;;;23.60;52.20;;;;;;222794;1253;24379;-57
2023/12/08 19:20:24;;;;;;;29.70;22.10;;;23.60;52.40;;;;;;222386;1259;25402;-57
2023/12/08 19:25:28;;;;;;;32.20;22.10;;;23.60;52.30;;;;;;222445;1260;22567;-57
2023/12/08 19:30:33;;;;;;;31.60;22.80;;;23.50;52.50;;;;;;222731;1254;24245;-57
2023/12/08 19:35:38;;;;;;;29.30;23.30;;;23.30;52.40;;;;;;222919;1264;25356;-57
2023/12/08 19:40:42;;;;;;;28.50;23.40;;;23.30;52.20;;;;;;223751;1259;25514;-56
2023/12/08 19:45:47;;;;;;;36.20;27.30;;;23.30;52.10;;;;;;222780;1254;24119;-50
2023/12/08 19:50:52;;;;;;;35.20;27.90;;;23.20;52.70;;;;;;222841;1260;23902;-45
2023/12/08 19:56:01;;;;;;;35.10;26.90;;;23.10;52.50;;;;;;223019;1254;22527;-47
2023/12/08 20:01:07;;;;;;;36.90;26.30;;;23.00;53.40;;;;;;222669;1260;22524;-46
2023/12/08 20:06:12;;;;;;;35.10;25.30;;;23.00;52.70;;;;;;222689;1260;23923;-47
2023/12/08 20:11:16;;;;;;;39.60;27.50;;;22.90;52.70;;;;;;222525;1257;22643;-49
2023/12/08 20:16:21;;;;;;;43.20;30.50;;;23.20;51.80;;;;;;222878;1263;24210;-48
2023/12/08 20:21:26;;;;;;;72.60;48.00;;;23.60;50.70;;;;;;222824;1261;22510;-49
2023/12/08 20:26:31;;;;;;;77.40;52.20;;;23.90;49.50;;;;;;222782;1260;22642;-47
2023/12/08 20:31:35;;;;;;;76.70;50.10;;;23.70;50.10;;;;;;222931;1254;22529;-49
2023/12/08 20:36:41;;;;;;;72.00;47.10;;;23.60;49.50;;;;;;222388;1252;25383;-45
2023/12/08 20:41:45;;;;;;;64.20;44.60;;;23.50;50.10;;;;;;222818;1260;23898;-46
2023/12/08 20:46:54;;;;;;;68.30;44.40;;;23.50;50.50;;;;;;222602;1264;25357;-49
2023/12/08 20:52:00;;;;;;;56.80;40.60;;;23.40;49.90;;;;;;223073;1254;22597;-46
2023/12/08 20:57:05;;;;;;;63.70;41.90;;;23.30;49.50;;;;;;222994;1244;24042;-45
2023/12/08 21:02:09;;;;;;;51.60;39.40;;;23.10;48.90;;;;;;222896;1264;25239;-45
2023/12/08 21:07:14;;;;;;;56.80;38.00;;;23.00;48.60;;;;;;222620;1256;22609;-45
2023/12/08 21:12:18;;;;;;;58.50;39.10;;;23.00;48.80;;;;;;222524;1255;24233;-46
2023/12/08 21:17:22;;;;;;;51.90;37.20;;;22.80;49.10;;;;;;222285;1268;24238;-50
2023/12/08 21:22:27;;;;;;;52.70;36.60;;;22.70;49.50;;;;;;222888;1264;22528;-48
2023/12/08 21:27:31;;;;;;;53.70;36.00;;;22.60;50.10;;;;;;222371;1260;24225;-48
2023/12/08 21:32:36;;;;;;;47.00;35.00;;;22.70;50.10;;;;;;222436;1264;23879;-50
2023/12/08 21:37:40;;;;;;;50.30;33.70;;;23.00;50.10;;;;;;222623;1261;24318;-50
2023/12/08 21:42:44;;;;;;;45.70;33.30;;;23.30;49.60;;;;;;222811;1261;23571;-47
2023/12/08 21:47:49;;;;;;;48.60;33.80;;;23.40;49.70;;;;;;222938;1268;25399;-46
2023/12/08 21:52:54;;;;;;;39.60;30.80;;;23.60;49.60;;;;;;222491;1254;24730;-51
2023/12/08 21:57:58;;;;;;;38.30;30.80;;;23.90;49.30;;;;;;222733;1260;22512;-50
2023/12/08 22:03:04;;;;;;;43.00;30.60;;;23.90;49.10;;;;;;222448;1260;24199;-50
2023/12/08 22:08:08;;;;;;;37.10;30.00;;;23.90;48.90;;;;;;222536;1266;22604;-52
2023/12/08 22:13:13;;;;;;;40.10;29.40;;;23.80;49.30;;;;;;222903;1264;24454;-52
2023/12/08 22:18:17;;;;;;;33.70;28.00;;;23.70;49.50;;;;;;222441;1261;22533;-51
2023/12/08 22:23:21;;;;;;;39.60;28.10;;;23.70;51.00;;;;;;222417;1254;22664;-49
2023/12/08 22:28:25;;;;;;;40.80;30.10;;;23.70;51.20;;;;;;222504;1266;23893;-52
2023/12/08 22:33:31;;;;;;;43.70;29.20;;;23.60;52.00;;;;;;222701;1266;22524;-49
2023/12/08 22:38:41;;;;;;;38.90;27.80;;;23.40;51.80;;;;;;222539;1268;25489;-51
2023/12/08 22:43:45;;;;;;;42.00;29.30;;;23.30;51.90;;;;;;222818;1258;26542;-51
2023/12/08 22:48:49;;;;;;;36.40;28.10;;;23.20;52.60;;;;;;223029;1261;22994;-51
2023/12/08 22:53:54;;;;;;;44.70;27.70;;;23.40;52.70;;;;;;222359;1268;22601;-50
2023/12/08 22:58:58;;;;;;;40.80;26.60;;;23.70;52.50;;;;;;222657;1265;25476;-52
2023/12/08 23:04:02;;;;;;;34.10;25.50;;;23.80;51.50;;;;;;222824;1266;24340;-50
2023/12/08 23:09:06;;;;;;;42.40;28.00;;;23.90;51.10;;;;;;222649;1265;22517;-51
2023/12/08 23:14:11;;;;;;;33.20;25.50;;;23.90;51.20;;;;;;222855;1254;22523;-53
2023/12/08 23:19:15;;;;;;;35.00;25.30;;;24.00;51.00;;;;;;222878;1260;22627;-55
2023/12/08 23:24:19;;;;;;;36.60;25.30;;;23.90;50.80;;;;;;222437;1247;24190;-50
2023/12/08 23:29:23;;;;;;;35.40;25.60;;;23.90;53.70;;;;;;222403;1263;22591;-47
2023/12/08 23:34:27;;;;;;;35.70;24.40;;;23.80;54.40;;;;;;223034;1245;24373;-53
2023/12/08 23:39:32;;;;;;;38.60;26.50;;;23.70;55.10;;;;;;222473;1260;22515;-51
2023/12/08 23:44:36;;;;;;;36.90;24.70;;;23.70;55.00;;;;;;222742;1245;22527;-50
2023/12/08 23:49:40;;;;;;;33.80;24.80;;;23.60;55.10;;;;;;222749;1260;22528;-48
2023/12/08 23:54:45;;;;;;;31.30;24.10;;;23.50;55.50;;;;;;222774;1268;22510;-53
2023/12/08 23:59:49;;;;;;;31.40;24.50;;;23.40;55.10;;;;;;222273;1247;23946;-48
